Time;durP1;ratioP1;P1;durP2;ratioP2;P2;SDS_P1;SDS_P2;PMS_P1;PMS_P2;Temp;Humidity;BMP_temperature;BMP_pressure;BME280_temperature;BME280_humidity;BME280_pressure;Samples;Min_cycle;Max_cycle;Signal;HPM_P1;HPM_P2
2021/01/31 00:02:25;;;;;;;;;;;14.00;99.90;;;13.24;100.00;101473.97;5052671;28;20298;-63
2021/01/31 00:04:53;;;;;;;;;;;13.90;99.90;;;13.17;100.00;101468.91;5052764;28;19929;-63
2021/01/31 00:07:21;;;;;;;;;;;13.90;99.90;;;13.08;100.00;101471.47;5052084;28;19925;-63
2021/01/31 00:09:49;;;;;;;;;;;13.80;99.90;;;13.06;100.00;101473.63;5052862;28;20401;-63
2021/01/31 00:12:17;;;;;;;;;;;13.70;99.90;;;12.98;100.00;101468.81;5052437;28;19975;-63
2021/01/31 00:14:44;;;;;;;;;;;13.60;99.90;;;12.90;100.00;101469.47;5052711;28;19978;-63
2021/01/31 00:17:11;;;;;;;;;;;13.60;99.90;;;12.84;100.00;101478.78;5052486;28;20312;-63
2021/01/31 00:19:38;;;;;;;;;;;13.50;99.90;;;12.78;100.00;101482.66;5052572;28;19994;-62
2021/01/31 00:22:05;;;;;;;;;;;13.50;99.90;;;12.74;100.00;101480.78;5052122;28;20374;-63
2021/01/31 00:24:33;;;;;;;;;;;13.40;99.90;;;12.68;100.00;101477.31;5052493;28;19924;-62
2021/01/31 00:27:01;;;;;;;;;;;13.30;99.90;;;12.64;100.00;101480.91;5052422;28;19936;-63
2021/01/31 00:29:28;;;;;;;;;;;13.30;99.90;;;12.60;100.00;101481.47;5052865;28;19925;-63
2021/01/31 00:31:55;;;;;;;;;;;13.20;99.90;;;12.63;100.00;101490.94;5051972;28;19932;-63
2021/01/31 00:34:22;;;;;;;;;;;13.20;99.90;;;12.65;100.00;101488.75;5052329;28;19924;-65
2021/01/31 00:36:50;;;;;;;;;;;13.30;99.90;;;12.74;100.00;101480.78;5051956;28;19932;-63
2021/01/31 00:39:17;;;;;;;;;;;13.30;99.90;;;12.79;100.00;101476.13;5052532;28;19932;-63
2021/01/31 00:41:46;;;;;;;;;;;13.40;99.90;;;12.84;100.00;101476.06;5051829;28;19924;-62
2021/01/31 00:44:13;;;;;;;;;;;13.50;99.90;;;12.90;100.00;101461.34;5052457;28;19932;-63
2021/01/31 00:46:42;;;;;;;;;;;13.50;99.90;;;12.96;100.00;101462.06;5051758;28;19936;-62
2021/01/31 00:49:10;;;;;;;;;;;13.60;99.90;;;13.00;100.00;101461.22;5052447;28;20400;-63
2021/01/31 00:51:38;;;;;;;;;;;13.60;99.90;;;13.06;100.00;101459.25;5051657;28;19925;-63
2021/01/31 00:54:05;;;;;;;;;;;13.70;99.90;;;13.08;100.00;101466.03;5052190;28;20283;-63
2021/01/31 00:56:32;;;;;;;;;;;13.70;99.90;;;13.12;100.00;101449.97;5051840;28;19925;-63
2021/01/31 00:59:00;;;;;;;;;;;13.80;99.90;;;13.13;100.00;101449.66;5052312;28;19929;-63
2021/01/31 01:01:28;;;;;;;;;;;13.80;99.90;;;13.06;100.00;101459.25;5051687;28;19932;-63
2021/01/31 01:03:55;;;;;;;;;;;13.70;99.90;;;12.92;100.00;101450.97;5052052;28;19929;-62
2021/01/31 01:06:22;;;;;;;;;;;13.60;99.90;;;12.84;100.00;101457.06;5051516;28;19932;-62
2021/01/31 01:08:49;;;;;;;;;;;13.50;99.90;;;12.80;100.00;101464.16;5052156;28;20370;-62
2021/01/31 01:11:16;;;;;;;;;;;13.50;99.90;;;12.78;100.00;101449.25;5051533;28;19935;-63
2021/01/31 01:13:43;;;;;;;;;;;13.40;99.90;;;12.75;100.00;101439.78;5052182;28;19929;-63
2021/01/31 01:16:12;;;;;;;;;;;13.40;99.90;;;12.74;100.00;101438.16;5051489;28;20385;-63
2021/01/31 01:18:39;;;;;;;;;;;13.40;99.90;;;12.74;100.00;101430.03;5054205;28;20408;-62
2021/01/31 01:21:06;;;;;;;;;;;13.40;99.90;;;12.74;100.00;101427.31;5055697;28;19937;-62
2021/01/31 01:23:33;;;;;;;;;;;13.40;99.90;;;12.70;100.00;101425.47;5055872;28;19928;-63
2021/01/31 01:26:00;;;;;;;;;;;13.40;99.90;;;12.70;100.00;101417.34;5055809;28;19929;-63
2021/01/31 01:28:28;;;;;;;;;;;13.30;99.90;;;12.68;100.00;101425.75;5056085;28;19983;-63
2021/01/31 01:30:55;;;;;;;;;;;13.30;99.90;;;12.68;100.00;101417.63;5055413;28;20298;-63
2021/01/31 01:33:23;;;;;;;;;;;13.30;99.90;;;12.70;100.00;101415.44;5055742;28;20263;-63
2021/01/31 01:35:51;;;;;;;;;;;13.30;99.90;;;12.72;100.00;101413.25;5055733;28;19928;-63
2021/01/31 01:38:18;;;;;;;;;;;13.40;99.90;;;12.75;100.00;101422.69;5055583;28;20394;-63
2021/01/31 01:40:45;;;;;;;;;;;13.40;99.90;;;12.76;100.00;101417.00;5055240;28;19929;-63
2021/01/31 01:43:15;;;;;;;;;;;13.40;99.90;;;12.80;100.00;101414.50;5055501;28;19979;-63
2021/01/31 01:45:42;;;;;;;;;;;13.40;99.90;;;12.79;100.00;101405.56;5055544;28;19928;-63
2021/01/31 01:48:13;;;;;;;;;;;13.50;99.90;;;12.81;100.00;101399.84;5055453;28;19932;-63
2021/01/31 01:50:45;;;;;;;;;;;13.50;99.90;;;12.80;100.00;101398.22;5055082;28;19932;-63
2021/01/31 01:53:13;;;;;;;;;;;13.50;99.90;;;12.76;100.00;101398.00;5055428;28;19948;-63
2021/01/31 01:55:46;;;;;;;;;;;13.40;99.90;;;12.83;100.00;101386.78;5055183;28;19925;-65
2021/01/31 01:58:15;;;;;;;;;;;13.40;99.90;;;12.80;100.00;101380.03;5055606;28;19936;-64
2021/01/31 02:00:43;;;;;;;;;;;13.50;99.90;;;12.83;100.00;101387.59;5054934;28;20348;-64
2021/01/31 02:03:14;;;;;;;;;;;13.50;99.90;;;12.84;100.00;101383.78;5055241;28;19952;-64
2021/01/31 02:05:44;;;;;;;;;;;13.50;99.90;;;12.87;100.00;101377.75;5055180;28;20008;-63
2021/01/31 02:08:11;;;;;;;;;;;13.50;99.90;;;12.89;100.00;101378.28;5055022;28;19928;-65
2021/01/31 02:10:38;;;;;;;;;;;13.50;99.90;;;12.90;100.00;101379.91;5054919;28;19952;-64
2021/01/31 02:13:06;;;;;;;;;;;13.60;99.90;;;12.93;100.00;101379.31;5054937;28;20374;-64
2021/01/31 02:15:34;;;;;;;;;;;13.60;99.90;;;12.94;100.00;101378.22;5055264;28;20374;-64
2021/01/31 02:18:23;;;;;;;;;;;13.60;99.90;;;12.97;100.00;101371.41;5054756;28;19929;-64
2021/01/31 02:21:21;;;;;;;;;;;13.60;99.90;;;12.99;100.00;101382.75;5054632;28;19925;-64
2021/01/31 02:24:33;;;;;;;;;;;13.60;99.90;;;12.99;100.00;101380.06;5054887;28;19963;-64
2021/01/31 02:27:23;;;;;;;;;;;13.60;99.90;;;12.98;100.00;101373.81;5018579;28;19929;-64
2021/01/31 02:30:13;;;;;;;;;;;13.60;99.90;;;12.96;100.00;101383.34;5054275;28;19947;-62
2021/01/31 02:33:09;;;;;;;;;;;13.60;99.90;;;12.94;100.00;101372.81;5054326;28;19932;-62
2021/01/31 02:35:37;;;;;;;;;;;13.60;99.90;;;12.95;100.00;101374.41;5054817;28;20332;-63
2021/01/31 02:38:10;;;;;;;;;;;13.60;99.90;;;12.94;100.00;101367.38;5054328;28;19932;-63
2021/01/31 02:40:50;;;;;;;;;;;13.60;99.90;;;12.94;100.00;101367.38;5054351;28;19932;-63
2021/01/31 02:43:21;;;;;;;;;;;13.60;99.90;;;12.94;100.00;101367.38;5054293;28;19925;-63
2021/01/31 02:45:49;;;;;;;;;;;13.60;99.90;;;12.95;100.00;101368.97;5054608;28;19929;-63
2021/01/31 02:48:20;;;;;;;;;;;13.60;99.90;;;12.94;100.00;101356.50;5054189;28;19974;-63
2021/01/31 02:50:50;;;;;;;;;;;13.60;99.90;;;12.95;100.00;101358.09;5054232;28;19991;-63
2021/01/31 02:53:22;;;;;;;;;;;13.60;99.90;;;12.95;100.00;101351.91;5054182;28;19929;-63
2021/01/31 02:55:53;;;;;;;;;;;13.60;99.90;;;12.95;100.00;101362.75;5054307;28;19932;-63
2021/01/31 02:58:23;;;;;;;;;;;13.50;99.90;;;12.95;100.00;101363.53;5053952;28;19925;-63
2021/01/31 03:00:55;;;;;;;;;;;13.60;99.90;;;12.93;100.00;101367.66;5053754;28;19978;-63
2021/01/31 03:03:28;;;;;;;;;;;13.60;99.90;;;12.90;100.00;101370.94;5054254;28;19986;-62
2021/01/31 03:05:58;;;;;;;;;;;13.50;99.90;;;12.88;100.00;101368.53;5053988;28;19952;-63
2021/01/31 03:08:27;;;;;;;;;;;13.50;99.90;;;12.90;100.00;101366.31;5053705;28;19990;-64
2021/01/31 03:10:59;;;;;;;;;;;13.50;99.90;;;12.90;100.00;101371.75;5053488;28;19925;-62
2021/01/31 03:13:29;;;;;;;;;;;13.50;99.90;;;12.92;100.00;101376.91;5054034;28;20042;-63
2021/01/31 03:16:02;;;;;;;;;;;13.60;99.90;;;12.90;100.00;101377.19;5054185;28;19929;-63
2021/01/31 03:18:35;;;;;;;;;;;13.50;99.90;;;12.93;100.00;101375.78;5053953;28;19925;-63
2021/01/31 03:21:06;;;;;;;;;;;13.60;99.90;;;12.94;100.00;101377.41;5053515;28;19994;-62
2021/01/31 03:23:36;;;;;;;;;;;13.60;99.90;;;12.98;100.00;101379.25;5053868;28;19929;-62
2021/01/31 03:26:08;;;;;;;;;;;13.60;99.90;;;13.01;100.00;101384.09;5053518;28;19932;-63
2021/01/31 03:28:35;;;;;;;;;;;13.60;99.90;;;13.02;100.00;101388.44;5053797;28;20369;-63
2021/01/31 03:31:03;;;;;;;;;;;13.70;99.90;;;13.05;100.00;101390.56;5053388;28;19979;-63
2021/01/31 03:33:37;;;;;;;;;;;13.70;99.90;;;13.09;100.00;101399.78;5053505;28;19946;-63
2021/01/31 03:36:04;;;;;;;;;;;13.70;99.90;;;13.11;100.00;101394.84;5053165;28;19983;-63
2021/01/31 03:38:36;;;;;;;;;;;13.80;99.90;;;13.14;100.00;101390.75;5053551;28;19924;-63
2021/01/31 03:41:06;;;;;;;;;;;13.80;99.90;;;13.18;100.00;101390.97;5052176;28;19925;-63
2021/01/31 03:43:34;;;;;;;;;;;13.80;99.90;;;13.22;100.00;101395.53;5053272;28;19929;-62
2021/01/31 03:46:06;;;;;;;;;;;13.80;99.90;;;13.24;100.00;101387.88;5052946;28;19924;-63
2021/01/31 03:48:39;;;;;;;;;;;13.90;99.90;;;13.27;100.00;101383.78;5053297;28;19928;-63
2021/01/31 03:51:06;;;;;;;;;;;13.90;99.90;;;13.28;100.00;101378.06;5052953;28;19932;-63
2021/01/31 03:53:33;;;;;;;;;;;13.90;99.90;;;13.29;100.00;101378.84;5052873;28;19936;-63
2021/01/31 03:56:00;;;;;;;;;;;13.90;99.90;;;13.29;100.00;101374.22;5053170;28;19924;-63
2021/01/31 03:58:28;;;;;;;;;;;14.00;99.90;;;13.32;100.00;101380.97;5053070;28;20389;-63
2021/01/31 04:00:58;;;;;;;;;;;14.00;99.90;;;13.32;100.00;101364.66;5052504;28;19932;-63
2021/01/31 04:03:28;;;;;;;;;;;14.00;99.90;;;13.34;100.00;101370.63;5052890;28;19928;-63
2021/01/31 04:05:59;;;;;;;;;;;14.00;99.90;;;13.35;100.00;101372.22;5052805;28;19932;-63
2021/01/31 04:08:28;;;;;;;;;;;14.00;99.90;;;13.35;100.00;101364.09;5052897;28;19925;-63
2021/01/31 04:10:56;;;;;;;;;;;14.00;99.90;;;13.36;100.00;101366.53;5052494;28;19947;-62
2021/01/31 04:13:23;;;;;;;;;;;14.00;99.90;;;13.35;100.00;101366.81;5052443;28;19955;-65
2021/01/31 04:15:51;;;;;;;;;;;14.00;99.90;;;13.38;100.00;101366.22;5052894;28;19929;-62
2021/01/31 04:18:20;;;;;;;;;;;14.10;99.90;;;13.39;100.00;101367.84;5052445;28;19925;-63
2021/01/31 04:20:48;;;;;;;;;;;14.10;99.90;;;13.38;100.00;101369.75;5052301;28;19955;-63
2021/01/31 04:23:16;;;;;;;;;;;14.10;99.90;;;13.39;100.00;101365.94;5052421;28;20386;-63
2021/01/31 04:25:44;;;;;;;;;;;14.10;99.90;;;13.40;100.00;101364.03;5052607;28;19925;-63
2021/01/31 04:28:13;;;;;;;;;;;14.00;99.90;;;13.42;100.00;101356.38;5052233;28;19974;-63
2021/01/31 04:30:42;;;;;;;;;;;14.00;99.90;;;13.41;100.00;101366.44;5052178;28;20243;-63
2021/01/31 04:33:10;;;;;;;;;;;14.10;99.90;;;13.41;100.00;101363.72;5052251;28;19932;-63
2021/01/31 04:35:37;;;;;;;;;;;14.10;99.90;;;13.42;100.00;101368.06;5052466;28;20452;-62
2021/01/31 04:38:05;;;;;;;;;;;14.10;99.90;;;13.43;100.00;101366.16;5052186;28;19928;-62
2021/01/31 04:40:34;;;;;;;;;;;14.10;99.90;;;13.44;100.00;101367.75;5051971;28;19936;-63
2021/01/31 04:43:01;;;;;;;;;;;14.10;99.90;;;13.43;100.00;101363.44;5052004;28;19936;-63
2021/01/31 04:45:29;;;;;;;;;;;14.10;99.90;;;13.44;100.00;101365.03;5052568;28;19932;-63
2021/01/31 04:48:15;;;;;;;;;;;14.10;99.90;;;13.45;100.00;101372.09;5051944;28;20390;-63
2021/01/31 04:50:46;;;;;;;;;;;14.10;99.90;;;13.44;100.00;101368.56;5051730;28;20294;-63
2021/01/31 04:53:23;;;;;;;;;;;14.10;99.90;;;13.45;100.00;101369.38;5051797;28;19936;-62
2021/01/31 04:56:12;;;;;;;;;;;14.10;99.90;;;13.44;100.00;101373.19;5052244;28;20383;-62
2021/01/31 04:58:44;;;;;;;;;;;14.10;99.90;;;13.44;100.00;101370.47;5051974;28;19932;-63
2021/01/31 05:01:18;;;;;;;;;;;14.10;99.90;;;13.42;100.00;101375.41;5051664;28;19925;-63
2021/01/31 05:03:49;;;;;;;;;;;14.10;99.90;;;13.43;100.00;101379.75;5051935;28;19936;-63
2021/01/31 05:06:17;;;;;;;;;;;14.10;99.90;;;13.43;100.00;101379.75;5051736;28;20374;-63
2021/01/31 05:08:47;;;;;;;;;;;14.10;99.90;;;13.44;100.00;101381.34;5052023;28;19925;-63
2021/01/31 05:11:20;;;;;;;;;;;14.10;99.90;;;13.45;100.00;101388.38;5051664;28;19932;-62
2021/01/31 05:13:54;;;;;;;;;;;14.10;99.90;;;13.43;100.00;101385.16;5051742;28;19932;-62
2021/01/31 05:16:22;;;;;;;;;;;14.10;99.90;;;13.44;100.00;101384.84;5051764;28;20279;-63
2021/01/31 05:18:51;;;;;;;;;;;14.10;99.90;;;13.45;100.00;101378.34;5051995;28;19978;-63
2021/01/31 05:21:20;;;;;;;;;;;14.10;99.90;;;13.45;100.00;101374.81;5051635;28;19952;-63
2021/01/31 05:23:50;;;;;;;;;;;14.10;99.90;;;13.46;100.00;101382.69;5051797;28;20393;-62
2021/01/31 05:26:20;;;;;;;;;;;14.10;99.90;;;13.47;100.00;101381.56;5051820;28;19928;-63
2021/01/31 05:28:55;;;;;;;;;;;14.10;99.90;;;13.46;100.00;101393.53;5051987;28;19929;-63
2021/01/31 05:31:23;;;;;;;;;;;14.10;99.90;;;13.48;100.00;101387.78;5051541;28;19929;-63
2021/01/31 05:33:53;;;;;;;;;;;14.10;99.90;;;13.48;100.00;101390.50;5051628;28;20286;-63
2021/01/31 05:36:21;;;;;;;;;;;14.10;99.90;;;13.48;100.00;101391.31;5051543;28;19925;-63
2021/01/31 05:38:50;;;;;;;;;;;14.10;99.90;;;13.49;100.00;101389.44;5051890;28;20352;-63
2021/01/31 05:41:46;;;;;;;;;;;14.10;99.90;;;13.49;100.00;101386.72;5051221;28;19932;-63
2021/01/31 05:44:26;;;;;;;;;;;14.10;99.90;;;13.49;100.00;101384.00;5049335;28;19936;-62
2021/01/31 05:46:54;;;;;;;;;;;14.10;99.90;;;13.49;100.00;101386.72;5051306;28;19932;-63
2021/01/31 05:49:39;;;;;;;;;;;14.10;99.90;;;13.47;100.00;101378.03;5051587;28;20394;-63
2021/01/31 05:52:34;;;;;;;;;;;14.20;99.90;;;13.49;100.00;101370.41;5051283;28;19932;-62
2021/01/31 05:55:01;;;;;;;;;;;14.10;99.90;;;13.47;100.00;101375.31;5051640;28;19925;-64
2021/01/31 05:57:32;;;;;;;;;;;14.10;99.90;;;13.46;100.00;101369.09;5051254;28;19951;-64
2021/01/31 06:00:00;;;;;;;;;;;14.10;99.90;;;13.46;100.00;101371.00;5051409;28;19924;-64
2021/01/31 06:02:30;;;;;;;;;;;14.10;99.90;;;13.47;100.00;101364.44;5051269;28;19929;-64
2021/01/31 06:05:10;;;;;;;;;;;14.10;99.90;;;13.45;100.00;101364.75;5053619;28;19932;-64
2021/01/31 06:07:39;;;;;;;;;;;14.10;99.90;;;13.45;100.00;101369.38;5054834;28;19929;-64
2021/01/31 06:10:12;;;;;;;;;;;14.10;99.90;;;13.46;100.00;101373.72;5055039;28;20019;-64
2021/01/31 06:12:40;;;;;;;;;;;14.10;99.90;;;13.46;100.00;101371.81;5054722;28;19925;-64
2021/01/31 06:15:10;;;;;;;;;;;14.10;99.90;;;13.45;100.00;101359.31;5054929;28;20279;-62
2021/01/31 06:17:37;;;;;;;;;;;14.10;99.90;;;13.45;100.00;101363.94;5054629;28;19929;-63
2021/01/31 06:20:09;;;;;;;;;;;14.10;99.90;;;13.45;100.00;101366.66;5054753;28;19925;-64
2021/01/31 06:22:41;;;;;;;;;;;14.10;99.90;;;13.46;100.00;101365.56;5054559;28;19925;-63
2021/01/31 06:25:12;;;;;;;;;;;14.10;99.90;;;13.45;100.00;101363.94;5054750;28;19936;-63
2021/01/31 06:27:40;;;;;;;;;;;14.10;99.90;;;13.44;100.00;101365.84;5054544;28;19979;-62
2021/01/31 06:30:22;;;;;;;;;;;14.10;99.90;;;13.44;100.00;101352.25;5054623;28;20286;-63
2021/01/31 06:32:52;;;;;;;;;;;14.10;99.90;;;13.42;100.00;101356.38;5053996;28;19948;-63
2021/01/31 06:35:22;;;;;;;;;;;14.00;99.90;;;13.41;100.00;101346.59;5054684;28;19928;-65
2021/01/31 06:38:01;;;;;;;;;;;14.10;99.90;;;13.38;100.00;101352.63;5054488;28;20364;-63
2021/01/31 06:40:36;;;;;;;;;;;14.00;99.90;;;13.37;100.00;101348.31;5054399;28;19925;-63
2021/01/31 06:43:08;;;;;;;;;;;14.00;99.90;;;13.32;100.00;101343.75;5054258;28;19932;-63
2021/01/31 06:45:39;;;;;;;;;;;14.00;99.90;;;13.31;100.00;101357.66;5054426;28;19925;-63
2021/01/31 06:48:22;;;;;;;;;;;13.90;99.90;;;13.29;100.00;101349.78;5054391;28;20271;-63
2021/01/31 06:51:04;;;;;;;;;;;13.90;99.90;;;13.29;100.00;101354.41;5054004;28;19925;-63
2021/01/31 06:53:47;;;;;;;;;;;13.90;99.90;;;13.28;100.00;101347.38;5053934;28;19924;-62
2021/01/31 06:56:51;;;;;;;;;;;13.90;99.90;;;13.28;100.00;101350.91;5054016;28;19948;-63
2021/01/31 06:59:40;;;;;;;;;;;13.90;99.90;;;13.25;100.00;101345.25;5053501;28;19931;-63
2021/01/31 07:02:38;;;;;;;;;;;13.90;99.90;;;13.22;100.00;101351.28;5053624;28;19935;-63
2021/01/31 07:05:26;;;;;;;;;;;13.90;99.90;;;13.18;100.00;101342.09;5051044;28;19932;-63
2021/01/31 07:08:33;;;;;;;;;;;13.80;99.90;;;13.16;100.00;101357.88;5046829;28;20420;-62
2021/01/31 07:11:12;;;;;;;;;;;13.80;99.90;;;13.10;100.00;101360.63;5049263;28;20270;-63
2021/01/31 07:13:58;;;;;;;;;;;13.70;99.90;;;13.11;100.00;101364.97;5053377;28;19990;-63
2021/01/31 07:16:40;;;;;;;;;;;13.80;99.90;;;13.11;100.00;101367.69;5053473;28;19932;-62
2021/01/31 07:19:13;;;;;;;;;;;13.70;99.90;;;13.12;100.00;101366.59;5054258;28;19925;-63
2021/01/31 07:21:45;;;;;;;;;;;13.80;99.90;;;13.16;100.00;101361.41;5053188;28;19925;-63
2021/01/31 07:24:17;;;;;;;;;;;13.80;99.90;;;13.19;100.00;101357.28;5053615;28;19979;-63
2021/01/31 07:26:48;;;;;;;;;;;13.80;99.90;;;13.21;100.00;101357.78;5053396;28;19925;-63
2021/01/31 07:29:16;;;;;;;;;;;13.80;99.90;;;13.22;100.00;101362.13;5053949;28;19925;-63
2021/01/31 07:31:47;;;;;;;;;;;13.80;99.90;;;13.25;100.00;101369.69;5052758;28;19932;-63
2021/01/31 07:34:19;;;;;;;;;;;13.90;99.90;;;13.29;100.00;101373.41;5053332;28;19928;-63
2021/01/31 07:37:08;;;;;;;;;;;13.90;99.90;;;13.30;100.00;101370.41;5053072;28;19925;-62
2021/01/31 07:39:56;;;;;;;;;;;14.00;99.90;;;13.33;100.00;101374.44;5053348;28;19925;-63
2021/01/31 07:42:25;;;;;;;;;;;14.00;99.90;;;13.36;100.00;101373.84;5052785;28;19925;-63
2021/01/31 07:44:57;;;;;;;;;;;14.00;99.90;;;13.38;100.00;101386.03;5053300;28;20545;-64
2021/01/31 07:47:26;;;;;;;;;;;14.00;99.90;;;13.40;100.00;101386.56;5052996;28;19931;-64
2021/01/31 07:50:40;;;;;;;;;;;14.10;99.90;;;13.46;100.00;101390.81;5052992;28;19937;-62
2021/01/31 07:53:08;;;;;;;;;;;14.10;99.90;;;13.47;100.00;101387.00;5052833;28;19939;-63
2021/01/31 07:55:38;;;;;;;;;;;14.10;99.90;;;13.50;100.00;101385.59;5053123;28;19924;-63
2021/01/31 07:58:41;;;;;;;;;;;14.10;99.90;;;13.53;100.00;101391.25;5052641;28;19932;-63
2021/01/31 08:01:14;;;;;;;;;;;14.10;99.90;;;13.55;100.00;101399.09;5052777;28;20337;-64
2021/01/31 08:03:44;;;;;;;;;;;14.20;99.90;;;13.57;100.00;101402.34;5052525;28;19924;-64
2021/01/31 08:06:41;;;;;;;;;;;14.20;99.90;;;13.60;100.00;101408.00;5052363;28;19929;-64
2021/01/31 08:09:08;;;;;;;;;;;14.20;99.90;;;13.62;100.00;101422.06;5053153;28;19925;-64
2021/01/31 08:11:55;;;;;;;;;;;14.30;99.90;;;13.64;100.00;101417.19;5052580;28;19924;-64
2021/01/31 08:15:06;;;;;;;;;;;14.30;99.90;;;13.68;100.00;101417.38;5051873;28;20273;-64
2021/01/31 08:17:45;;;;;;;;;;;14.30;99.90;;;13.71;100.00;101416.78;5052444;28;19928;-62
2021/01/31 08:20:48;;;;;;;;;;;14.30;99.90;;;13.77;100.00;101418.31;5052564;28;19928;-63
2021/01/31 08:23:51;;;;;;;;;;;14.40;99.90;;;13.81;100.00;101422.06;5052203;28;19982;-63
2021/01/31 08:26:40;;;;;;;;;;;14.50;99.90;;;13.82;100.00;101431.03;5051915;28;19936;-63
2021/01/31 08:29:18;;;;;;;;;;;14.40;99.90;;;13.85;100.00;101428.53;5052623;28;19929;-62
2021/01/31 08:32:10;;;;;;;;;;;14.50;99.90;;;13.93;100.00;101427.03;5052137;28;19929;-63
2021/01/31 08:35:10;;;;;;;;;;;14.50;99.90;;;13.99;100.00;101432.09;5052141;28;19979;-63
2021/01/31 08:37:38;;;;;;;;;;;14.60;99.90;;;14.05;100.00;101430.09;5052105;28;19931;-63
2021/01/31 08:40:29;;;;;;;;;;;14.70;99.90;;;14.08;100.00;101437.66;5051049;28;19925;-63
2021/01/31 08:42:57;;;;;;;;;;;14.70;99.90;;;14.10;100.00;101440.91;5041411;28;20255;-63
2021/01/31 08:45:40;;;;;;;;;;;14.80;99.90;;;14.15;100.00;101438.91;5052278;28;19944;-63
2021/01/31 08:48:07;;;;;;;;;;;14.80;99.90;;;14.20;100.00;101437.97;5051864;28;19994;-63
2021/01/31 08:50:34;;;;;;;;;;;14.80;99.90;;;14.27;100.00;101432.16;5051945;28;19932;-63
2021/01/31 08:53:02;;;;;;;;;;;14.90;99.90;;;14.36;100.00;101420.31;5051737;28;19932;-63
2021/01/31 08:55:29;;;;;;;;;;;14.90;99.90;;;14.53;100.00;101425.19;5052289;28;19925;-63
2021/01/31 08:57:59;;;;;;;;;;;15.10;99.90;;;14.63;100.00;101423.06;5051833;28;19924;-63
2021/01/31 09:00:28;;;;;;;;;;;15.20;99.90;;;14.66;100.00;101424.38;5051655;28;19925;-63
2021/01/31 09:02:56;;;;;;;;;;;15.20;99.90;;;14.65;100.00;101425.50;5051341;28;20290;-63
2021/01/31 09:05:24;;;;;;;;;;;15.20;99.90;;;14.66;100.00;101416.19;5050832;28;20309;-63
2021/01/31 09:07:52;;;;;;;;;;;15.20;99.90;;;14.87;100.00;101413.88;5051661;28;20440;-63
2021/01/31 09:10:31;;;;;;;;;;;15.40;99.90;;;14.95;100.00;101416.72;5051773;28;20362;-63
2021/01/31 09:13:13;;;;;;;;;;;15.50;99.90;;;15.09;100.00;101422.13;5051574;28;20340;-63
2021/01/31 09:15:40;;;;;;;;;;;15.60;99.90;;;15.03;100.00;101426.88;5051698;28;19925;-63
2021/01/31 09:18:10;;;;;;;;;;;15.60;99.90;;;15.03;100.00;101426.06;5051660;28;20397;-63
2021/01/31 09:20:37;;;;;;;;;;;15.60;99.90;;;14.97;100.00;101433.53;5051564;28;19925;-63
2021/01/31 09:23:10;;;;;;;;;;;15.50;99.90;;;14.93;100.00;101437.16;5051437;28;19932;-63
2021/01/31 09:25:38;;;;;;;;;;;15.50;99.90;;;14.90;100.00;101438.59;5051565;28;19933;-63
2021/01/31 09:28:11;;;;;;;;;;;15.50;99.90;;;14.91;100.00;101440.22;5051632;28;19968;-63
2021/01/31 09:30:40;;;;;;;;;;;15.50;99.90;;;14.94;100.00;101447.78;5051443;28;19929;-63
2021/01/31 09:33:10;;;;;;;;;;;15.50;99.90;;;15.00;100.00;101449.28;5051322;28;19925;-63
2021/01/31 09:35:40;;;;;;;;;;;15.60;99.90;;;15.15;100.00;101446.22;5051593;28;19929;-63
2021/01/31 09:38:25;;;;;;;;;;;15.70;99.90;;;15.46;100.00;101460.00;5051490;28;19931;-64
2021/01/31 09:40:54;;;;;;;;;;;15.90;99.90;;;15.58;100.00;101460.31;5055186;28;19932;-64
2021/01/31 09:43:26;;;;;;;;;;;16.00;99.90;;;15.63;100.00;101459.38;5055323;28;19932;-65
2021/01/31 09:45:54;;;;;;;;;;;16.10;99.90;;;15.79;100.00;101458.72;5055360;28;20301;-63
2021/01/31 09:48:24;;;;;;;;;;;16.30;99.90;;;15.85;100.00;101464.84;5055431;28;19928;-62
2021/01/31 09:50:56;;;;;;;;;;;16.30;99.90;;;15.81;100.00;101467.38;5054994;28;19948;-65
2021/01/31 09:53:39;;;;;;;;;;;16.30;99.90;;;15.77;100.00;101479.22;5054960;28;19928;-62
2021/01/31 09:56:08;;;;;;;;;;;16.30;99.90;;;15.79;100.00;101463.34;5054029;28;19928;-63
2021/01/31 09:58:43;;;;;;;;;;;16.30;99.90;;;15.98;100.00;101471.38;5055429;28;20398;-63
2021/01/31 10:01:16;;;;;;;;;;;16.40;99.90;;;16.27;100.00;101475.25;5054875;28;19924;-63
2021/01/31 10:03:44;;;;;;;;;;;16.70;99.90;;;16.27;100.00;101480.72;5054954;28;19924;-64
2021/01/31 10:06:13;;;;;;;;;;;16.70;99.90;;;16.16;100.00;101484.81;5054885;28;19979;-63
2021/01/31 10:08:49;;;;;;;;;;;16.70;99.90;;;16.06;100.00;101476.88;5055638;28;19924;-63
2021/01/31 10:11:30;;;;;;;;;;;16.60;99.90;;;16.01;100.00;101476.19;5055126;28;19978;-63
2021/01/31 10:13:59;;;;;;;;;;;16.60;99.90;;;16.07;100.00;101473.03;5055107;28;19935;-63
2021/01/31 10:16:29;;;;;;;;;;;16.60;99.90;;;16.10;100.00;101482.53;5054830;28;19925;-63
2021/01/31 10:19:10;;;;;;;;;;;16.60;99.90;;;16.09;100.00;101473.53;5055336;28;19931;-63
2021/01/31 10:21:38;;;;;;;;;;;16.60;99.90;;;16.18;100.00;101482.59;5054655;28;20294;-63
2021/01/31 10:24:15;;;;;;;;;;;16.70;99.90;;;16.31;100.00;101489.91;5054790;28;20370;-62
2021/01/31 10:26:42;;;;;;;;;;;16.80;99.90;;;16.42;100.00;101498.63;5054421;28;19924;-63
2021/01/31 10:29:19;;;;;;;;;;;16.90;99.90;;;16.61;100.00;101495.69;5055046;28;19932;-64
2021/01/31 10:31:46;;;;;;;;;;;17.10;99.90;;;16.81;100.00;101498.69;5054454;28;19928;-65
2021/01/31 10:34:38;;;;;;;;;;;17.30;99.90;;;16.86;100.00;101497.75;5054558;28;19928;-65
2021/01/31 10:37:16;;;;;;;;;;;17.40;99.90;;;16.80;100.00;101499.03;5054389;28;19931;-65
2021/01/31 10:39:44;;;;;;;;;;;17.40;99.90;;;16.70;100.00;101499.28;5054593;28;20383;-64
2021/01/31 10:42:11;;;;;;;;;;;17.30;99.90;;;16.68;100.00;101510.53;5054192;28;19924;-64
2021/01/31 10:44:39;;;;;;;;;;;17.30;99.90;;;16.66;100.00;101504.56;5054485;28;20268;-64
2021/01/31 10:47:06;;;;;;;;;;;17.30;99.90;;;16.59;100.00;101504.22;5054117;28;19932;-65
2021/01/31 10:49:33;;;;;;;;;;;17.20;99.90;;;16.54;100.00;101508.97;5054202;28;19936;-65
2021/01/31 10:52:00;;;;;;;;;;;17.10;99.90;;;16.47;100.00;101500.44;5054046;28;19929;-65
2021/01/31 10:54:28;;;;;;;;;;;17.10;99.90;;;16.45;100.00;101511.63;5054269;28;19932;-64
2021/01/31 10:56:55;;;;;;;;;;;17.10;99.90;;;16.35;100.00;101501.78;5054008;28;19978;-64
2021/01/31 10:59:22;;;;;;;;;;;17.00;99.90;;;16.32;100.00;101510.59;5054399;28;19931;-65
2021/01/31 11:01:51;;;;;;;;;;;17.00;99.90;;;16.23;100.00;101515.19;5053811;28;19928;-64
2021/01/31 11:04:19;;;;;;;;;;;16.90;99.90;;;16.19;100.00;101514.22;5054129;28;19925;-64
2021/01/31 11:06:47;;;;;;;;;;;16.90;99.90;;;16.16;100.00;101514.03;5053583;28;20027;-65
2021/01/31 11:09:15;;;;;;;;;;;16.80;99.90;;;16.06;100.00;101512.34;5054281;28;19932;-65
2021/01/31 11:11:43;;;;;;;;;;;16.70;99.90;;;15.95;100.00;101508.25;5053820;28;19925;-64
2021/01/31 11:14:10;;;;;;;;;;;16.60;99.90;;;15.92;100.00;101508.88;5054008;28;19925;-65
2021/01/31 11:16:37;;;;;;;;;;;16.60;99.90;;;15.97;100.00;101513.38;5053465;28;20382;-65
2021/01/31 11:19:05;;;;;;;;;;;16.60;99.90;;;15.98;100.00;101495.91;5054004;28;19978;-65
2021/01/31 11:21:33;;;;;;;;;;;16.60;99.90;;;15.92;100.00;101506.16;5053709;28;19925;-65
2021/01/31 11:24:00;;;;;;;;;;;16.50;99.90;;;15.91;100.00;101503.72;5053839;28;19929;-64
2021/01/31 11:26:27;;;;;;;;;;;16.50;99.90;;;15.85;100.00;101503.03;5053445;28;19929;-64
2021/01/31 11:28:54;;;;;;;;;;;16.50;99.90;;;15.71;100.00;101499.56;5053810;28;19932;-64